L'Europe — FKJB — position and weather

sailwx.info

Track history (hours):
 
Tides and Currents Weather Stations Pressure Air Temp Water Temp Dewpoint Dewpoint Depression Visibility Wind Speed Wind Dir Waves Ship Positions

Oceanographic research ship L'Europe (France)

Detailed information on ship capabilities available from University of Delaware's Ocean Information Center.

Last reported at 2017-Jul-23 21:04 UTC. Time now 2017-Jul-24 18:40 UTC.
Position N 43°24' E 003°42'.

Length 30 m; beam 11 m.

Type: Fishing. MMSI: 227403000.

Date/timePositionNaut miles runAvg speedWind from/ knotsBaromVisibWave heightAir tempDewpointWater temp
2017-Jul-23 21:04N 43°24' E 003°42'0 0.0
2017-Jul-23 20:59N 43°24' E 003°42'0 0.0
2017-Jul-23 18:51N 43°24' E 003°42'0 0.0
2017-Jul-23 18:29N 43°24' E 003°42'0 0.0
2017-Jul-23 17:59N 43°24' E 003°42'0 0.0
2017-Jul-23 17:29N 43°24' E 003°42'0 0.0
2017-Jul-23 15:59N 43°24' E 003°42'1 1.7
2017-Jul-23 15:28N 43°24' E 003°43'6 9.5
2017-Jul-23 14:52N 43°23' E 003°51'4 9.5
2017-Jul-23 14:30N 43°22' E 003°55'5 9.3
2017-Jul-23 14:00N 43°21' E 004°02'5 9.2
2017-Jul-23 13:31N 43°19' E 004°08'5 9.4
2017-Jul-23 13:01N 43°18' E 004°14'510.0
2017-Jul-23 12:30N 43°17' E 004°20'5 9.8
2017-Jul-23 12:01N 43°16' E 004°27'510.1
2017-Jul-23 11:30N 43°14' E 004°34'5 9.6
2017-Jul-23 11:00N 43°13' E 004°40'4 8.2
2017-Jul-23 10:30N 43°12' E 004°46'4 8.1
2017-Jul-23 10:00N 43°11' E 004°51'4 8.1
2017-Jul-23 09:30N 43°10' E 004°56'4 8.2
2017-Jul-23 09:00N 43°09' E 005°02'4 8.2
2017-Jul-23 08:30N 43°08' E 005°07'4 7.8
2017-Jul-23 07:58N 43°06' E 005°12'1 2.3
2017-Jul-23 07:30N 43°07' E 005°12'3 3.8
2017-Jul-23 06:48N 43°09' E 005°09'2 5.7
2017-Jul-23 06:30N 43°08' E 005°11'1 2.3
2017-Jul-23 06:00N 43°07' E 005°12'1 1.0
2017-Jul-23 05:09N 43°06' E 005°12'0 0.5
2017-Jul-23 05:00N 43°06' E 005°12'1 1.0
2017-Jul-23 04:29N 43°06' E 005°13'1 1.8
2017-Jul-23 03:59N 43°06' E 005°14'5 4.0
2017-Jul-23 02:38N 43°08' E 005°07'1 5.3
2017-Jul-23 02:30N 43°08' E 005°06'3 5.4
2017-Jul-23 02:00N 43°09' E 005°03'3 5.2
2017-Jul-23 01:30N 43°11' E 004°60'3 5.2
2017-Jul-23 01:01N 43°12' E 004°57'3 5.1
2017-Jul-23 00:30N 43°13' E 004°54'2 4.9
2017-Jul-23 00:01N 43°14' E 004°51'2 4.8
2017-Jul-22 23:31N 43°15' E 004°48'2 4.6
2017-Jul-22 23:00N 43°16' E 004°45'2 4.5
2017-Jul-22 22:30N 43°17' E 004°42'2 4.5
2017-Jul-22 22:00N 43°18' E 004°39'2 4.5
2017-Jul-22 21:30N 43°19' E 004°36'2 4.6
2017-Jul-22 21:01N 43°20' E 004°34'2 4.2
2017-Jul-22 20:30N 43°22' E 004°32'2 3.8
2017-Jul-22 20:00N 43°24' E 004°33'1 2.4
2017-Jul-22 19:31N 43°25' E 004°34'0 0.0
2017-Jul-22 18:55N 43°25' E 004°34'0 0.0
2017-Jul-22 18:28N 43°25' E 004°34'0 0.0
2017-Jul-22 17:58N 43°25' E 004°34'0 0.0
2017-Jul-22 17:27N 43°25' E 004°34'0 0.0
2017-Jul-22 16:57N 43°25' E 004°34'0 0.0
2017-Jul-22 16:27N 43°25' E 004°34'0 0.0
2017-Jul-22 16:00N 43°25' E 004°34'0 0.0
2017-Jul-22 15:30N 43°25' E 004°34'3 5.5
2017-Jul-22 15:00N 43°22' E 004°33'8 8.1
2017-Jul-22 14:00N 43°17' E 004°41'4 8.1
2017-Jul-22 13:30N 43°13' E 004°45'2 4.2
2017-Jul-22 13:00N 43°12' E 004°46'1 2.1
2017-Jul-22 12:30N 43°13' E 004°46'0 0.5
2017-Jul-22 12:00N 43°13' E 004°45'0 0.2
2017-Jul-22 11:31N 43°13' E 004°45'1 2.4
2017-Jul-22 11:00N 43°12' E 004°46'2 3.8
2017-Jul-22 10:31N 43°13' E 004°45'2 3.3
2017-Jul-22 10:00N 43°15' E 004°43'1 1.7
2017-Jul-22 09:30N 43°14' E 004°44'4 8.2
2017-Jul-22 09:00N 43°11' E 004°48'4 8.2
2017-Jul-22 08:31N 43°07' E 004°51'4 8.1
2017-Jul-22 08:01N 43°04' E 004°54'2 3.7
2017-Jul-22 07:30N 43°03' E 004°56'2 3.6
2017-Jul-22 07:00N 43°04' E 004°54'2 3.7
2017-Jul-22 06:31N 43°05' E 004°53'3 6.1
2017-Jul-22 06:00N 43°03' E 004°55'4 8.1
2017-Jul-22 05:31N 42°60' E 004°58'1 1.1
2017-Jul-22 05:00N 42°59' E 004°59'0 0.9
2017-Jul-22 04:30N 42°59' E 004°59'0 1.0
2017-Jul-22 04:00N 42°59' E 005°00'1 2.6
2017-Jul-22 03:30N 43°00' E 004°59'1 2.6
2017-Jul-22 03:00N 43°01' E 004°58'1 2.7
2017-Jul-22 02:30N 43°03' E 004°57'1 2.8
2017-Jul-22 02:00N 43°04' E 004°55'1 2.8
2017-Jul-22 01:31N 43°05' E 004°54'1 2.8
2017-Jul-22 01:00N 43°05' E 004°53'1 2.7
2017-Jul-22 00:30N 43°06' E 004°51'1 2.6
2017-Jul-22 00:00N 43°07' E 004°50'1 2.7
2017-Jul-21 23:30N 43°08' E 004°49'1 2.6
2017-Jul-21 23:00N 43°09' E 004°48'1 2.6
2017-Jul-21 22:30N 43°11' E 004°47'1 2.7
2017-Jul-21 22:00N 43°12' E 004°46'2 3.0
2017-Jul-21 21:30N 43°13' E 004°45'1 2.7
2017-Jul-21 21:00N 43°14' E 004°43'1 2.8
2017-Jul-21 20:30N 43°15' E 004°42'1 1.5
2017-Jul-21 20:00N 43°15' E 004°42'1 1.4
2017-Jul-21 19:30N 43°16' E 004°41'1 1.4
2017-Jul-21 19:01N 43°17' E 004°41'1 1.4
2017-Jul-21 18:30N 43°17' E 004°40'0 1.0
2017-Jul-21 18:00N 43°18' E 004°40'1 1.4
2017-Jul-21 17:30N 43°18' E 004°40'0 1.0
2017-Jul-21 17:01N 43°19' E 004°39'0 1.0
2017-Jul-21 16:30N 43°19' E 004°38'1 1.0
2017-Jul-21 16:00N 43°19' E 004°38'1 1.6
2017-Jul-21 15:31N 43°19' E 004°38'1 1.5
2017-Jul-21 15:00N 43°20' E 004°39'4 8.2
2017-Jul-21 14:30N 43°19' E 004°33'1 2.7
2017-Jul-21 14:00N 43°18' E 004°31'2 4.3
2017-Jul-21 13:31N 43°19' E 004°34'2 3.4
2017-Jul-21 13:00N 43°19' E 004°36'3 6.0
2017-Jul-21 12:31N 43°19' E 004°32'4 7.3
2017-Jul-21 12:00N 43°18' E 004°27'4 7.7
2017-Jul-21 11:30N 43°17' E 004°22'3 5.2
2017-Jul-21 11:00N 43°14' E 004°24'0 0.7
2017-Jul-21 10:30N 43°14' E 004°24'1 2.9
2017-Jul-21 10:00N 43°13' E 004°25'2 3.3
2017-Jul-21 09:30N 43°14' E 004°24'1 2.7
2017-Jul-21 09:01N 43°15' E 004°23'4 8.3
2017-Jul-21 08:30N 43°12' E 004°26'4 8.1
2017-Jul-21 08:00N 43°09' E 004°29'3 6.4
2017-Jul-21 07:30N 43°06' E 004°32'2 3.1
2017-Jul-21 07:00N 43°07' E 004°31'2 3.6
2017-Jul-21 06:31N 43°09' E 004°29'2 4.5
2017-Jul-21 06:00N 43°07' E 004°31'4 8.1
2017-Jul-21 05:30N 43°04' E 004°34'1 2.7
2017-Jul-21 05:00N 43°03' E 004°36'0 0.6
2017-Jul-21 04:30N 43°03' E 004°35'0 0.9
2017-Jul-21 04:00N 43°03' E 004°35'0 0.2
2017-Jul-21 03:31N 43°03' E 004°35'0 0.9
2017-Jul-21 03:00N 43°03' E 004°35'0 0.8
2017-Jul-21 02:29N 43°03' E 004°36'0 0.7
2017-Jul-21 02:00N 43°03' E 004°36'0 0.6
2017-Jul-21 01:30N 43°02' E 004°37'0 0.6
2017-Jul-21 01:00N 43°02' E 004°37'0 0.5
2017-Jul-21 00:30N 43°02' E 004°37'1 1.0
2017-Jul-21 00:01N 43°02' E 004°37'1 1.3
2017-Jul-20 23:30N 43°01' E 004°37'0 0.3
2017-Jul-20 23:00N 43°01' E 004°37'1 1.2
2017-Jul-20 22:30N 43°02' E 004°38'1 1.0
2017-Jul-20 21:53N 43°02' E 004°38'0 1.1
2017-Jul-20 21:29N 43°03' E 004°38'1 1.0
2017-Jul-20 21:00N 43°03' E 004°38'0 1.0
2017-Jul-20 20:30N 43°04' E 004°38'0 0.9
2017-Jul-20 19:59N 43°04' E 004°39'0 0.9
2017-Jul-20 19:30N 43°05' E 004°39'0 0.6
2017-Jul-20 19:00N 43°04' E 004°39'1 1.6
2017-Jul-20 18:30N 43°03' E 004°38'1 1.6
2017-Jul-20 18:00N 43°03' E 004°39'1 1.9
2017-Jul-20 17:30N 43°02' E 004°38'1 1.7
2017-Jul-20 17:00N 43°01' E 004°37'1 2.0
2017-Jul-20 16:31N 43°02' E 004°36'2 3.7
2017-Jul-20 16:00N 43°03' E 004°35'2 3.1
2017-Jul-20 15:30N 43°05' E 004°33'4 8.1
2017-Jul-20 15:00N 43°01' E 004°37'8 8.3
2017-Jul-20 14:01N 42°54' E 004°43'0 0.7
2017-Jul-20 13:30N 42°54' E 004°43'2 4.0
2017-Jul-20 13:00N 42°56' E 004°42'2 4.0
2017-Jul-20 12:30N 42°58' E 004°40'2 4.2
2017-Jul-20 12:00N 42°56' E 004°42'4 7.8
2017-Jul-20 11:30N 42°53' E 004°45'0 0.6
2017-Jul-20 11:00N 42°53' E 004°45'1 1.7
2017-Jul-20 10:30N 42°53' E 004°44'5 9.3
2017-Jul-20 09:59N 42°52' E 004°37'5 9.4
2017-Jul-20 09:30N 42°52' E 004°31'4 7.4
2017-Jul-20 09:00N 42°52' E 004°26'0 0.7
2017-Jul-20 08:30N 42°52' E 004°26'2 3.4
2017-Jul-20 08:00N 42°53' E 004°25'4 8.1
2017-Jul-20 07:30N 42°56' E 004°21'1 1.7
2017-Jul-20 07:00N 42°56' E 004°22'2 4.0
2017-Jul-20 06:30N 42°54' E 004°24'1 1.1
2017-Jul-20 06:00N 42°54' E 004°23'1 1.2
2017-Jul-20 05:30N 42°54' E 004°24'4 7.9
2017-Jul-20 05:00N 42°57' E 004°21'4 7.8
2017-Jul-20 04:30N 43°00' E 004°17'0 0.6
2017-Jul-20 03:59N 43°00' E 004°18'3 0.9
2017-Jul-20 00:29N 42°57' E 004°17'1 1.4
2017-Jul-20 00:00N 42°56' E 004°17'1 1.7
2017-Jul-19 23:30N 42°57' E 004°17'1 1.6
2017-Jul-19 23:00N 42°58' E 004°17'1 1.7
2017-Jul-19 22:30N 42°59' E 004°16'1 1.6
2017-Jul-19 22:00N 42°59' E 004°16'1 1.1
2017-Jul-19 21:29N 43°00' E 004°16'2 2.2
2017-Jul-19 20:41N 42°58' E 004°17'0 2.3
2017-Jul-19 20:30N 42°58' E 004°17'1 2.2
2017-Jul-19 19:58N 42°57' E 004°18'1 2.1
2017-Jul-19 19:30N 42°56' E 004°19'0 0.7
2017-Jul-19 19:00N 42°56' E 004°19'1 1.3
2017-Jul-19 18:30N 42°57' E 004°18'1 1.0
2017-Jul-19 17:52N 42°58' E 004°18'1 2.0
2017-Jul-19 17:28N 42°58' E 004°18'1 2.0
2017-Jul-19 16:54N 42°60' E 004°18'1 1.8
2017-Jul-19 16:23N 43°00' E 004°17'1 1.8
2017-Jul-19 15:47N 43°01' E 004°16'0 0.6
2017-Jul-19 15:30N 43°01' E 004°16'1 2.7
2017-Jul-19 14:58N 43°03' E 004°15'3 3.9
2017-Jul-19 14:11N 43°00' E 004°18'0 0.9
2017-Jul-19 13:51N 43°00' E 004°17'5 8.0
2017-Jul-19 13:10N 43°05' E 004°13'1 7.9
2017-Jul-19 12:59N 43°06' E 004°12'3 6.6
2017-Jul-19 12:29N 43°09' E 004°13'4 7.9
2017-Jul-19 12:00N 43°12' E 004°16'4 8.0
2017-Jul-19 11:30N 43°15' E 004°20'3 6.5
2017-Jul-19 11:00N 43°18' E 004°20'4 8.1
2017-Jul-19 10:29N 43°22' E 004°16'4 7.9
2017-Jul-19 10:00N 43°25' E 004°13'0 0.5
2017-Jul-19 09:29N 43°25' E 004°13'2 4.0
2017-Jul-19 09:00N 43°23' E 004°15'1 1.5
2017-Jul-19 08:30N 43°24' E 004°14'4 8.1
2017-Jul-19 08:00N 43°27' E 004°11'0 0.8
2017-Jul-19 07:30N 43°27' E 004°10'4 8.1
2017-Jul-19 07:00N 43°26' E 004°05'5 9.2
2017-Jul-19 06:30N 43°26' E 003°59'5 9.1
2017-Jul-19 06:00N 43°25' E 003°52'4 9.0
2017-Jul-19 05:30N 43°24' E 003°46'3 6.2
2017-Jul-19 05:00N 43°24' E 003°42'0 0.0
2017-Jul-19 04:27N 43°24' E 003°42'0 0.0
2017-Jul-19 03:57N 43°24' E 003°42'0 0.0
2017-Jul-19 03:21N 43°24' E 003°42'0 0.0
2017-Jul-19 02:56N 43°24' E 003°42'0 0.0
2017-Jul-19 02:20N 43°24' E 003°42'0 0.0
2017-Jul-19 01:47N 43°24' E 003°42'0 0.0
2017-Jul-19 01:20N 43°24' E 003°42'0 0.0
2017-Jul-19 00:56N 43°24' E 003°42'0 0.0
2017-Jul-19 00:25N 43°24' E 003°42'0 0.0
2017-Jul-18 23:58N 43°24' E 003°42'0 0.0
2017-Jul-18 23:28N 43°24' E 003°42'0 0.0
2017-Jul-18 22:49N 43°24' E 003°42'0 0.0
2017-Jul-18 22:27N 43°24' E 003°42'0 0.0
2017-Jul-18 21:54N 43°24' E 003°42'0 0.0
2017-Jul-18 21:30N 43°24' E 003°42'0 0.0
2017-Jul-18 21:00N 43°24' E 003°42'0 0.0
2017-Jul-18 20:27N 43°24' E 003°42'0 0.0
2017-Jul-18 19:53N 43°24' E 003°42'0 0.0
2017-Jul-18 19:29N 43°24' E 003°42'0 0.0
2017-Jul-18 18:53N 43°24' E 003°42'0 0.0
2017-Jul-18 17:52N 43°24' E 003°42'0 0.0
2017-Jul-18 17:22N 43°24' E 003°42'0 0.0
2017-Jul-18 16:58N 43°24' E 003°42'0 0.0
2017-Jul-18 16:22N 43°24' E 003°42'0 0.0
2017-Jul-18 15:52N 43°24' E 003°42'0 0.0
2017-Jul-18 15:27N 43°24' E 003°42'0 0.0
2017-Jul-18 15:00N 43°24' E 003°42'0 0.0
2017-Jul-18 13:42N 43°24' E 003°42'0 0.0
2017-Jul-18 13:27N 43°24' E 003°42'0 0.0
2017-Jul-18 05:05N 43°24' E 003°42'8 0.5
2017-Jul-17 13:07N 43°25' E 003°53'11 5.5
2017-Jul-17 11:08N 43°14' E 003°52'1 3.6
2017-Jul-17 10:56N 43°15' E 003°52'6 3.6
2017-Jul-17 09:08N 43°09' E 003°49'12 6.1
2017-Jul-17 07:09N 43°12' E 004°05'0 0.7
2017-Jul-17 06:53N 43°12' E 004°05'3 1.5
2017-Jul-17 05:09N 43°11' E 004°01'1 4.9
2017-Jul-17 04:54N 43°11' E 004°03'3 1.5
2017-Jul-17 03:09N 43°14' E 004°04'0 0.7
2017-Jul-17 02:54N 43°14' E 004°04'1 0.7
2017-Jul-17 01:09N 43°15' E 004°02'0 0.9
2017-Jul-17 00:54N 43°15' E 004°02'3 1.8
2017-Jul-16 23:10N 43°18' E 004°00'1 2.0
2017-Jul-16 22:54N 43°18' E 004°00'3 1.9
2017-Jul-16 21:11N 43°21' E 003°58'0 1.9
2017-Jul-16 20:55N 43°21' E 003°57'2 1.4
2017-Jul-16 19:11N 43°23' E 003°55'0 0.1
2017-Jul-16 19:00N 43°23' E 003°55'3 1.5
2017-Jul-16 17:11N 43°21' E 003°58'1 2.2
2017-Jul-16 16:54N 43°21' E 003°58'3 1.7
2017-Jul-16 15:11N 43°23' E 003°55'0 1.7
2017-Jul-16 14:56N 43°23' E 003°55'8 4.6
2017-Jul-16 13:09N 43°16' E 004°01'1 5.6
2017-Jul-16 12:55N 43°15' E 004°03'1 0.6
2017-Jul-16 10:26N 43°14' E 004°04'7 5.5
2017-Jul-16 09:13N 43°09' E 004°09'0 0.7
2017-Jul-16 09:00N 43°09' E 004°09'0 0.1
2017-Jul-16 07:11N 43°09' E 004°09'2 8.0
2017-Jul-16 06:57N 43°07' E 004°10'16 8.2
2017-Jul-16 04:58N 42°54' E 004°24'3 1.4
2017-Jul-16 03:10N 42°52' E 004°23'1 2.4
2017-Jul-16 02:57N 42°51' E 004°23'24 1.0
2017-Jul-15 03:15N 43°07' E 003°57'18 4.6
2017-Jul-14 23:18N 43°25' E 004°02'1 4.2
2017-Jul-14 23:00N 43°26' E 004°03'4 2.5
2017-Jul-14 21:19N 43°30' E 004°05'0 0.1
2017-Jul-14 19:18N 43°30' E 004°05'2 0.8
2017-Jul-14 17:03N 43°29' E 004°02'2 1.4
2017-Jul-14 15:17N 43°28' E 003°60'3 1.5
2017-Jul-14 13:20N 43°25' E 003°60'5 2.3
2017-Jul-14 11:20N 43°21' E 004°03'1 0.3
2017-Jul-14 09:21N 43°21' E 004°03'6 2.8
2017-Jul-14 07:21N 43°26' E 003°58'0 0.0
2017-Jul-14 05:04N 43°26' E 003°59'2 0.9
2017-Jul-14 03:21N 43°25' E 003°56'  
Track history (hours):
 
Tides and Currents Weather Stations Pressure Air Temp Water Temp Dewpoint Dewpoint Depression Visibility Wind Speed Wind Dir Waves Ship Positions

Oceanographic research ship L'Europe (France)

Detailed information on ship capabilities available from University of Delaware's Ocean Information Center.

Last reported at 2017-Jul-23 21:04 UTC. Time now 2017-Jul-24 18:40 UTC.
Position N 43°24' E 003°42'.

Length 30 m; beam 11 m.

Type: Fishing. MMSI: 227403000.

Date/timePositionNaut miles runAvg speedWind from/ knotsBaromVisibWave heightAir tempDewpointWater temp
2017-Jul-23 21:04N 43°24' E 003°42'0 0.0
2017-Jul-23 20:59N 43°24' E 003°42'0 0.0
2017-Jul-23 18:51N 43°24' E 003°42'0 0.0
2017-Jul-23 18:29N 43°24' E 003°42'0 0.0
2017-Jul-23 17:59N 43°24' E 003°42'0 0.0
2017-Jul-23 17:29N 43°24' E 003°42'0 0.0
2017-Jul-23 15:59N 43°24' E 003°42'1 1.7
2017-Jul-23 15:28N 43°24' E 003°43'6 9.5
2017-Jul-23 14:52N 43°23' E 003°51'4 9.5
2017-Jul-23 14:30N 43°22' E 003°55'5 9.3
2017-Jul-23 14:00N 43°21' E 004°02'5 9.2
2017-Jul-23 13:31N 43°19' E 004°08'5 9.4
2017-Jul-23 13:01N 43°18' E 004°14'510.0
2017-Jul-23 12:30N 43°17' E 004°20'5 9.8
2017-Jul-23 12:01N 43°16' E 004°27'510.1
2017-Jul-23 11:30N 43°14' E 004°34'5 9.6
2017-Jul-23 11:00N 43°13' E 004°40'4 8.2
2017-Jul-23 10:30N 43°12' E 004°46'4 8.1
2017-Jul-23 10:00N 43°11' E 004°51'4 8.1
2017-Jul-23 09:30N 43°10' E 004°56'4 8.2
2017-Jul-23 09:00N 43°09' E 005°02'4 8.2
2017-Jul-23 08:30N 43°08' E 005°07'4 7.8
2017-Jul-23 07:58N 43°06' E 005°12'1 2.3
2017-Jul-23 07:30N 43°07' E 005°12'3 3.8
2017-Jul-23 06:48N 43°09' E 005°09'2 5.7
2017-Jul-23 06:30N 43°08' E 005°11'1 2.3
2017-Jul-23 06:00N 43°07' E 005°12'1 1.0
2017-Jul-23 05:09N 43°06' E 005°12'0 0.5
2017-Jul-23 05:00N 43°06' E 005°12'1 1.0
2017-Jul-23 04:29N 43°06' E 005°13'1 1.8
2017-Jul-23 03:59N 43°06' E 005°14'5 4.0
2017-Jul-23 02:38N 43°08' E 005°07'1 5.3
2017-Jul-23 02:30N 43°08' E 005°06'3 5.4
2017-Jul-23 02:00N 43°09' E 005°03'3 5.2
2017-Jul-23 01:30N 43°11' E 004°60'3 5.2
2017-Jul-23 01:01N 43°12' E 004°57'3 5.1
2017-Jul-23 00:30N 43°13' E 004°54'2 4.9
2017-Jul-23 00:01N 43°14' E 004°51'2 4.8
2017-Jul-22 23:31N 43°15' E 004°48'2 4.6
2017-Jul-22 23:00N 43°16' E 004°45'2 4.5
2017-Jul-22 22:30N 43°17' E 004°42'2 4.5
2017-Jul-22 22:00N 43°18' E 004°39'2 4.5
2017-Jul-22 21:30N 43°19' E 004°36'2 4.6
2017-Jul-22 21:01N 43°20' E 004°34'2 4.2
2017-Jul-22 20:30N 43°22' E 004°32'2 3.8
2017-Jul-22 20:00N 43°24' E 004°33'1 2.4
2017-Jul-22 19:31N 43°25' E 004°34'0 0.0
2017-Jul-22 18:55N 43°25' E 004°34'0 0.0
2017-Jul-22 18:28N 43°25' E 004°34'0 0.0
2017-Jul-22 17:58N 43°25' E 004°34'0 0.0
2017-Jul-22 17:27N 43°25' E 004°34'0 0.0
2017-Jul-22 16:57N 43°25' E 004°34'0 0.0
2017-Jul-22 16:27N 43°25' E 004°34'0 0.0
2017-Jul-22 16:00N 43°25' E 004°34'0 0.0
2017-Jul-22 15:30N 43°25' E 004°34'3 5.5
2017-Jul-22 15:00N 43°22' E 004°33'8 8.1
2017-Jul-22 14:00N 43°17' E 004°41'4 8.1
2017-Jul-22 13:30N 43°13' E 004°45'2 4.2
2017-Jul-22 13:00N 43°12' E 004°46'1 2.1
2017-Jul-22 12:30N 43°13' E 004°46'0 0.5
2017-Jul-22 12:00N 43°13' E 004°45'0 0.2
2017-Jul-22 11:31N 43°13' E 004°45'1 2.4
2017-Jul-22 11:00N 43°12' E 004°46'2 3.8
2017-Jul-22 10:31N 43°13' E 004°45'2 3.3
2017-Jul-22 10:00N 43°15' E 004°43'1 1.7
2017-Jul-22 09:30N 43°14' E 004°44'4 8.2
2017-Jul-22 09:00N 43°11' E 004°48'4 8.2
2017-Jul-22 08:31N 43°07' E 004°51'4 8.1
2017-Jul-22 08:01N 43°04' E 004°54'2 3.7
2017-Jul-22 07:30N 43°03' E 004°56'2 3.6
2017-Jul-22 07:00N 43°04' E 004°54'2 3.7
2017-Jul-22 06:31N 43°05' E 004°53'3 6.1
2017-Jul-22 06:00N 43°03' E 004°55'4 8.1
2017-Jul-22 05:31N 42°60' E 004°58'1 1.1
2017-Jul-22 05:00N 42°59' E 004°59'0 0.9
2017-Jul-22 04:30N 42°59' E 004°59'0 1.0
2017-Jul-22 04:00N 42°59' E 005°00'1 2.6
2017-Jul-22 03:30N 43°00' E 004°59'1 2.6
2017-Jul-22 03:00N 43°01' E 004°58'1 2.7
2017-Jul-22 02:30N 43°03' E 004°57'1 2.8
2017-Jul-22 02:00N 43°04' E 004°55'1 2.8
2017-Jul-22 01:31N 43°05' E 004°54'1 2.8
2017-Jul-22 01:00N 43°05' E 004°53'1 2.7
2017-Jul-22 00:30N 43°06' E 004°51'1 2.6
2017-Jul-22 00:00N 43°07' E 004°50'1 2.7
2017-Jul-21 23:30N 43°08' E 004°49'1 2.6
2017-Jul-21 23:00N 43°09' E 004°48'1 2.6
2017-Jul-21 22:30N 43°11' E 004°47'1 2.7
2017-Jul-21 22:00N 43°12' E 004°46'2 3.0
2017-Jul-21 21:30N 43°13' E 004°45'1 2.7
2017-Jul-21 21:00N 43°14' E 004°43'1 2.8
2017-Jul-21 20:30N 43°15' E 004°42'1 1.5
2017-Jul-21 20:00N 43°15' E 004°42'1 1.4
2017-Jul-21 19:30N 43°16' E 004°41'1 1.4
2017-Jul-21 19:01N 43°17' E 004°41'1 1.4
2017-Jul-21 18:30N 43°17' E 004°40'0 1.0
2017-Jul-21 18:00N 43°18' E 004°40'1 1.4
2017-Jul-21 17:30N 43°18' E 004°40'0 1.0
2017-Jul-21 17:01N 43°19' E 004°39'0 1.0
2017-Jul-21 16:30N 43°19' E 004°38'1 1.0
2017-Jul-21 16:00N 43°19' E 004°38'1 1.6
2017-Jul-21 15:31N 43°19' E 004°38'1 1.5
2017-Jul-21 15:00N 43°20' E 004°39'4 8.2
2017-Jul-21 14:30N 43°19' E 004°33'1 2.7
2017-Jul-21 14:00N 43°18' E 004°31'2 4.3
2017-Jul-21 13:31N 43°19' E 004°34'2 3.4
2017-Jul-21 13:00N 43°19' E 004°36'3 6.0
2017-Jul-21 12:31N 43°19' E 004°32'4 7.3
2017-Jul-21 12:00N 43°18' E 004°27'4 7.7
2017-Jul-21 11:30N 43°17' E 004°22'3 5.2
2017-Jul-21 11:00N 43°14' E 004°24'0 0.7
2017-Jul-21 10:30N 43°14' E 004°24'1 2.9
2017-Jul-21 10:00N 43°13' E 004°25'2 3.3
2017-Jul-21 09:30N 43°14' E 004°24'1 2.7
2017-Jul-21 09:01N 43°15' E 004°23'4 8.3
2017-Jul-21 08:30N 43°12' E 004°26'4 8.1
2017-Jul-21 08:00N 43°09' E 004°29'3 6.4
2017-Jul-21 07:30N 43°06' E 004°32'2 3.1
2017-Jul-21 07:00N 43°07' E 004°31'2 3.6
2017-Jul-21 06:31N 43°09' E 004°29'2 4.5
2017-Jul-21 06:00N 43°07' E 004°31'4 8.1
2017-Jul-21 05:30N 43°04' E 004°34'1 2.7
2017-Jul-21 05:00N 43°03' E 004°36'0 0.6
2017-Jul-21 04:30N 43°03' E 004°35'0 0.9
2017-Jul-21 04:00N 43°03' E 004°35'0 0.2
2017-Jul-21 03:31N 43°03' E 004°35'0 0.9
2017-Jul-21 03:00N 43°03' E 004°35'0 0.8
2017-Jul-21 02:29N 43°03' E 004°36'0 0.7
2017-Jul-21 02:00N 43°03' E 004°36'0 0.6
2017-Jul-21 01:30N 43°02' E 004°37'0 0.6
2017-Jul-21 01:00N 43°02' E 004°37'0 0.5
2017-Jul-21 00:30N 43°02' E 004°37'1 1.0
2017-Jul-21 00:01N 43°02' E 004°37'1 1.3
2017-Jul-20 23:30N 43°01' E 004°37'0 0.3
2017-Jul-20 23:00N 43°01' E 004°37'1 1.2
2017-Jul-20 22:30N 43°02' E 004°38'1 1.0
2017-Jul-20 21:53N 43°02' E 004°38'0 1.1
2017-Jul-20 21:29N 43°03' E 004°38'1 1.0
2017-Jul-20 21:00N 43°03' E 004°38'0 1.0
2017-Jul-20 20:30N 43°04' E 004°38'0 0.9
2017-Jul-20 19:59N 43°04' E 004°39'0 0.9
2017-Jul-20 19:30N 43°05' E 004°39'0 0.6
2017-Jul-20 19:00N 43°04' E 004°39'1 1.6
2017-Jul-20 18:30N 43°03' E 004°38'1 1.6
2017-Jul-20 18:00N 43°03' E 004°39'1 1.9
2017-Jul-20 17:30N 43°02' E 004°38'1 1.7
2017-Jul-20 17:00N 43°01' E 004°37'1 2.0
2017-Jul-20 16:31N 43°02' E 004°36'2 3.7
2017-Jul-20 16:00N 43°03' E 004°35'2 3.1
2017-Jul-20 15:30N 43°05' E 004°33'4 8.1
2017-Jul-20 15:00N 43°01' E 004°37'8 8.3
2017-Jul-20 14:01N 42°54' E 004°43'0 0.7
2017-Jul-20 13:30N 42°54' E 004°43'2 4.0
2017-Jul-20 13:00N 42°56' E 004°42'2 4.0
2017-Jul-20 12:30N 42°58' E 004°40'2 4.2
2017-Jul-20 12:00N 42°56' E 004°42'4 7.8
2017-Jul-20 11:30N 42°53' E 004°45'0 0.6
2017-Jul-20 11:00N 42°53' E 004°45'1 1.7
2017-Jul-20 10:30N 42°53' E 004°44'5 9.3
2017-Jul-20 09:59N 42°52' E 004°37'5 9.4
2017-Jul-20 09:30N 42°52' E 004°31'4 7.4
2017-Jul-20 09:00N 42°52' E 004°26'0 0.7
2017-Jul-20 08:30N 42°52' E 004°26'2 3.4
2017-Jul-20 08:00N 42°53' E 004°25'4 8.1
2017-Jul-20 07:30N 42°56' E 004°21'1 1.7
2017-Jul-20 07:00N 42°56' E 004°22'2 4.0
2017-Jul-20 06:30N 42°54' E 004°24'1 1.1
2017-Jul-20 06:00N 42°54' E 004°23'1 1.2
2017-Jul-20 05:30N 42°54' E 004°24'4 7.9
2017-Jul-20 05:00N 42°57' E 004°21'4 7.8
2017-Jul-20 04:30N 43°00' E 004°17'0 0.6
2017-Jul-20 03:59N 43°00' E 004°18'3 0.9
2017-Jul-20 00:29N 42°57' E 004°17'1 1.4
2017-Jul-20 00:00N 42°56' E 004°17'1 1.7
2017-Jul-19 23:30N 42°57' E 004°17'1 1.6
2017-Jul-19 23:00N 42°58' E 004°17'1 1.7
2017-Jul-19 22:30N 42°59' E 004°16'1 1.6
2017-Jul-19 22:00N 42°59' E 004°16'1 1.1
2017-Jul-19 21:29N 43°00' E 004°16'2 2.2
2017-Jul-19 20:41N 42°58' E 004°17'0 2.3
2017-Jul-19 20:30N 42°58' E 004°17'1 2.2
2017-Jul-19 19:58N 42°57' E 004°18'1 2.1
2017-Jul-19 19:30N 42°56' E 004°19'0 0.7
2017-Jul-19 19:00N 42°56' E 004°19'1 1.3
2017-Jul-19 18:30N 42°57' E 004°18'1 1.0
2017-Jul-19 17:52N 42°58' E 004°18'1 2.0
2017-Jul-19 17:28N 42°58' E 004°18'1 2.0
2017-Jul-19 16:54N 42°60' E 004°18'1 1.8
2017-Jul-19 16:23N 43°00' E 004°17'1 1.8
2017-Jul-19 15:47N 43°01' E 004°16'0 0.6
2017-Jul-19 15:30N 43°01' E 004°16'1 2.7
2017-Jul-19 14:58N 43°03' E 004°15'3 3.9
2017-Jul-19 14:11N 43°00' E 004°18'0 0.9
2017-Jul-19 13:51N 43°00' E 004°17'5 8.0
2017-Jul-19 13:10N 43°05' E 004°13'1 7.9
2017-Jul-19 12:59N 43°06' E 004°12'3 6.6
2017-Jul-19 12:29N 43°09' E 004°13'4 7.9
2017-Jul-19 12:00N 43°12' E 004°16'4 8.0
2017-Jul-19 11:30N 43°15' E 004°20'3 6.5
2017-Jul-19 11:00N 43°18' E 004°20'4 8.1
2017-Jul-19 10:29N 43°22' E 004°16'4 7.9
2017-Jul-19 10:00N 43°25' E 004°13'0 0.5
2017-Jul-19 09:29N 43°25' E 004°13'2 4.0
2017-Jul-19 09:00N 43°23' E 004°15'1 1.5
2017-Jul-19 08:30N 43°24' E 004°14'4 8.1
2017-Jul-19 08:00N 43°27' E 004°11'0 0.8
2017-Jul-19 07:30N 43°27' E 004°10'4 8.1
2017-Jul-19 07:00N 43°26' E 004°05'5 9.2
2017-Jul-19 06:30N 43°26' E 003°59'5 9.1
2017-Jul-19 06:00N 43°25' E 003°52'4 9.0
2017-Jul-19 05:30N 43°24' E 003°46'3 6.2
2017-Jul-19 05:00N 43°24' E 003°42'0 0.0
2017-Jul-19 04:27N 43°24' E 003°42'0 0.0
2017-Jul-19 03:57N 43°24' E 003°42'0 0.0
2017-Jul-19 03:21N 43°24' E 003°42'0 0.0
2017-Jul-19 02:56N 43°24' E 003°42'0 0.0
2017-Jul-19 02:20N 43°24' E 003°42'0 0.0
2017-Jul-19 01:47N 43°24' E 003°42'0 0.0
2017-Jul-19 01:20N 43°24' E 003°42'0 0.0
2017-Jul-19 00:56N 43°24' E 003°42'0 0.0
2017-Jul-19 00:25N 43°24' E 003°42'0 0.0
2017-Jul-18 23:58N 43°24' E 003°42'0 0.0
2017-Jul-18 23:28N 43°24' E 003°42'0 0.0
2017-Jul-18 22:49N 43°24' E 003°42'0 0.0
2017-Jul-18 22:27N 43°24' E 003°42'0 0.0
2017-Jul-18 21:54N 43°24' E 003°42'0 0.0
2017-Jul-18 21:30N 43°24' E 003°42'0 0.0
2017-Jul-18 21:00N 43°24' E 003°42'0 0.0
2017-Jul-18 20:27N 43°24' E 003°42'0 0.0
2017-Jul-18 19:53N 43°24' E 003°42'0 0.0
2017-Jul-18 19:29N 43°24' E 003°42'0 0.0
2017-Jul-18 18:53N 43°24' E 003°42'0 0.0
2017-Jul-18 17:52N 43°24' E 003°42'0 0.0
2017-Jul-18 17:22N 43°24' E 003°42'0 0.0
2017-Jul-18 16:58N 43°24' E 003°42'0 0.0
2017-Jul-18 16:22N 43°24' E 003°42'0 0.0
2017-Jul-18 15:52N 43°24' E 003°42'0 0.0
2017-Jul-18 15:27N 43°24' E 003°42'0 0.0
2017-Jul-18 15:00N 43°24' E 003°42'0 0.0
2017-Jul-18 13:42N 43°24' E 003°42'0 0.0
2017-Jul-18 13:27N 43°24' E 003°42'0 0.0
2017-Jul-18 05:05N 43°24' E 003°42'8 0.5
2017-Jul-17 13:07N 43°25' E 003°53'11 5.5
2017-Jul-17 11:08N 43°14' E 003°52'1 3.6
2017-Jul-17 10:56N 43°15' E 003°52'6 3.6
2017-Jul-17 09:08N 43°09' E 003°49'12 6.1
2017-Jul-17 07:09N 43°12' E 004°05'0 0.7
2017-Jul-17 06:53N 43°12' E 004°05'3 1.5
2017-Jul-17 05:09N 43°11' E 004°01'1 4.9
2017-Jul-17 04:54N 43°11' E 004°03'3 1.5
2017-Jul-17 03:09N 43°14' E 004°04'0 0.7
2017-Jul-17 02:54N 43°14' E 004°04'1 0.7
2017-Jul-17 01:09N 43°15' E 004°02'0 0.9
2017-Jul-17 00:54N 43°15' E 004°02'3 1.8
2017-Jul-16 23:10N 43°18' E 004°00'1 2.0
2017-Jul-16 22:54N 43°18' E 004°00'3 1.9
2017-Jul-16 21:11N 43°21' E 003°58'0 1.9
2017-Jul-16 20:55N 43°21' E 003°57'2 1.4
2017-Jul-16 19:11N 43°23' E 003°55'0 0.1
2017-Jul-16 19:00N 43°23' E 003°55'3 1.5
2017-Jul-16 17:11N 43°21' E 003°58'1 2.2
2017-Jul-16 16:54N 43°21' E 003°58'3 1.7
2017-Jul-16 15:11N 43°23' E 003°55'0 1.7
2017-Jul-16 14:56N 43°23' E 003°55'8 4.6
2017-Jul-16 13:09N 43°16' E 004°01'1 5.6
2017-Jul-16 12:55N 43°15' E 004°03'1 0.6
2017-Jul-16 10:26N 43°14' E 004°04'7 5.5
2017-Jul-16 09:13N 43°09' E 004°09'0 0.7
2017-Jul-16 09:00N 43°09' E 004°09'0 0.1
2017-Jul-16 07:11N 43°09' E 004°09'2 8.0
2017-Jul-16 06:57N 43°07' E 004°10'16 8.2
2017-Jul-16 04:58N 42°54' E 004°24'3 1.4
2017-Jul-16 03:10N 42°52' E 004°23'1 2.4
2017-Jul-16 02:57N 42°51' E 004°23'24 1.0
2017-Jul-15 03:15N 43°07' E 003°57'18 4.6
2017-Jul-14 23:18N 43°25' E 004°02'1 4.2
2017-Jul-14 23:00N 43°26' E 004°03'4 2.5
2017-Jul-14 21:19N 43°30' E 004°05'0 0.1
2017-Jul-14 19:18N 43°30' E 004°05'2 0.8
2017-Jul-14 17:03N 43°29' E 004°02'2 1.4
2017-Jul-14 15:17N 43°28' E 003°60'3 1.5
2017-Jul-14 13:20N 43°25' E 003°60'5 2.3
2017-Jul-14 11:20N 43°21' E 004°03'1 0.3
2017-Jul-14 09:21N 43°21' E 004°03'6 2.8
2017-Jul-14 07:21N 43°26' E 003°58'0 0.0
2017-Jul-14 05:04N 43°26' E 003°59'2 0.9
2017-Jul-14 03:21N 43°25' E 003°56'  

Dump ship's entire track history